Airfield :
LOGIN :

Register | Disclaimer

   EN    FR    IT 

 










Legend :    VFR   Marginal VFR   IFR   Intensive IFR   Very Intensive IFR
Visi :
Ceiling :
>= 8 km
>= 3000ft
5 to 8 km
1000 to 3000 ft
1500m to 5 km
500 to 1000 ft
800 to 1500m
200 to 500 ft
< 800m
< 200 ft
Symbols :   Thunderstorms  Fog  Heavy snow  Heavy precipitations  Wind > 20 kt
SIGMETs :     Misc.  Thunderstorms  Icing  Turbulence  Mountain Waves  Volcanic Ashes






- Airport Elevation : 458 ft


LFSI - St-Dizier

CURRENT METAR :
  • 270900Z AUTO 20007KT 5000 -DZ BR OVC007 02/01 Q1015

EXPIRED METARs :
  • 270830Z AUTO 21006KT 180V240 9999 OVC014 02/01 Q1015
  • 270800Z AUTO 20007KT 9999 -RA OVC020 02/M01 Q1015
  • 270730Z AUTO 21004KT 180V270 9999 OVC024 03/M02 Q1015
  • 270700Z AUTO 19005KT 9999 OVC031 02/M02 Q1015
  • 270630Z AUTO 19005KT 9999 OVC036 03/M02 Q1015

TAF TAF LFSI
Valid from the 26 at 21:00 until the 27 at 21:00 UTC


262000Z 2621/2721 21005KT CAVOK
BECMG 2704/2706 4000 -DZRA OVC006
PROB40
TEMPO 2704/2710 2000 -SN BKN004



MET'MAP, your aeronautical weather chart ! - Copyright ORBIFLY December 2007 - Disclaimer

ORBIFLY MET'MAP TEAM :

Programming & Development : Alexandra Zaïnal
Concept & original design : Baudouin d'Aumeries
Assistance for programming : Marc-Olivier Méhu
Technical & hardware support : Manuel Goepfert

Contact : metmap@orbifly.com




SOURCES & CREDITS :

   NOAA